Time;durP1;ratioP1;P1;durP2;ratioP2;P2;SDS_P1;SDS_P2;PMS_P1;PMS_P2;Temp;Humidity;BMP_temperature;BMP_pressure;BME280_temperature;BME280_humidity;BME280_pressure;Samples;Min_cycle;Max_cycle;Signal;HPM_P1;HPM_P2
2022/06/16 00:01:48;;;;;;;6.88;4.90;;;20.70;74.00;;;;;;5041705;28;20025;-68
2022/06/16 00:04:13;;;;;;;8.87;5.60;;;20.70;74.20;;;;;;5041978;28;20106;-68
2022/06/16 00:06:39;;;;;;;7.33;5.83;;;20.70;73.00;;;;;;5041696;28;20029;-67
2022/06/16 00:09:05;;;;;;;7.07;5.83;;;20.70;74.30;;;;;;5042455;28;20045;-68
2022/06/16 00:11:30;;;;;;;5.87;5.07;;;20.60;74.30;;;;;;5041745;28;20017;-68
2022/06/16 00:13:56;;;;;;;5.83;4.97;;;20.60;74.20;;;;;;5042019;28;20036;-68
2022/06/16 00:16:22;;;;;;;7.40;5.00;;;20.50;74.40;;;;;;5041715;28;20036;-68
2022/06/16 00:18:48;;;;;;;11.32;5.50;;;20.40;74.60;;;;;;5042162;28;20052;-68
2022/06/16 00:21:14;;;;;;;7.33;5.10;;;20.50;75.60;;;;;;5041346;28;20324;-68
2022/06/16 00:23:40;;;;;;;6.77;5.07;;;20.40;75.30;;;;;;5024170;28;20025;-68
2022/06/16 00:26:17;;;;;;;6.17;5.27;;;20.40;75.30;;;;;;5041482;28;20264;-68
2022/06/16 00:28:43;;;;;;;6.38;4.88;;;20.30;75.50;;;;;;5024558;28;20327;-68
2022/06/16 00:31:10;;;;;;;7.13;4.87;;;20.30;75.50;;;;;;5041901;28;20025;-68
2022/06/16 00:33:36;;;;;;;9.30;6.15;;;20.30;76.30;;;;;;5023933;28;20049;-68
2022/06/16 00:36:02;;;;;;;8.23;5.63;;;20.20;76.20;;;;;;5041918;28;20350;-68
2022/06/16 00:38:28;;;;;;;7.93;5.28;;;20.20;76.40;;;;;;5041442;28;20107;-68
2022/06/16 00:40:53;;;;;;;9.77;5.93;;;20.20;76.80;;;;;;5042009;28;20065;-68
2022/06/16 00:43:19;;;;;;;7.70;6.10;;;20.10;77.30;;;;;;5041821;28;20025;-68
2022/06/16 00:45:50;;;;;;;6.23;4.97;;;20.10;77.80;;;;;;5041292;28;20028;-68
2022/06/16 00:48:38;;;;;;;9.77;6.18;;;20.10;77.50;;;;;;5041893;28;20025;-68
2022/06/16 00:51:09;;;;;;;7.63;5.43;;;20.10;77.20;;;;;;5024745;28;20025;-68
2022/06/16 00:53:36;;;;;;;8.80;5.80;;;20.10;77.10;;;;;;5040643;28;20083;-68
2022/06/16 00:56:01;;;;;;;6.70;5.45;;;20.10;77.10;;;;;;5010667;28;20101;-68
2022/06/16 00:58:28;;;;;;;7.03;5.40;;;20.10;77.80;;;;;;5045783;28;20208;-68
2022/06/16 01:00:54;;;;;;;8.77;5.85;;;20.00;78.30;;;;;;5010892;28;20041;-68
2022/06/16 01:06:19;;;;;;;10.52;5.75;;;20.00;78.50;;;;;;5044799;28;20059;-68
2022/06/16 01:08:46;;;;;;;8.15;6.05;;;20.00;78.60;;;;;;5045568;28;20204;-68
2022/06/16 01:14:55;;;;;;;9.88;6.32;;;19.90;78.50;;;;;;5011425;28;20292;-68
2022/06/16 01:17:56;;;;;;;8.70;6.53;;;19.90;79.10;;;;;;5045403;28;20028;-68
2022/06/16 01:20:47;;;;;;;9.15;5.68;;;19.90;78.80;;;;;;5028459;28;20021;-68
2022/06/16 01:23:41;;;;;;;8.63;5.80;;;19.90;80.50;;;;;;5014157;28;20017;-68
2022/06/16 01:26:21;;;;;;;6.85;5.38;;;19.90;79.60;;;;;;5045578;28;20098;-68
2022/06/16 01:29:11;;;;;;;6.70;5.53;;;19.80;80.00;;;;;;5045309;28;20025;-68
2022/06/16 01:31:43;;;;;;;10.43;6.10;;;19.80;79.30;;;;;;5044554;28;20024;-67
2022/06/16 01:34:37;;;;;;;9.25;5.55;;;19.80;78.80;;;;;;5027227;28;20033;-68
2022/06/16 01:40:25;;;;;;;9.40;6.28;;;19.80;80.00;;;;;;5038785;28;20055;-74
2022/06/16 01:43:12;;;;;;;7.95;5.85;;;19.80;78.70;;;;;;4990218;28;20025;-74
2022/06/16 01:46:15;;;;;;;6.10;5.15;;;19.80;80.00;;;;;;5010197;28;20212;-76
2022/06/16 01:48:43;;;;;;;6.97;5.35;;;19.70;80.30;;;;;;5033107;28;20014;-75
2022/06/16 01:51:28;;;;;;;6.78;5.90;;;19.70;80.90;;;;;;5006792;28;20308;-75
2022/06/16 01:54:16;;;;;;;8.85;5.68;;;19.60;81.00;;;;;;5011051;28;20026;-75
2022/06/16 01:57:06;;;;;;;7.18;5.93;;;19.60;80.80;;;;;;4993691;28;20034;-75
2022/06/16 02:00:06;;;;;;;11.20;6.65;;;19.60;80.50;;;;;;5009351;28;20032;-75
2022/06/16 02:02:33;;;;;;;6.63;5.93;;;19.50;81.20;;;;;;4995177;28;20033;-75
2022/06/16 02:05:06;;;;;;;7.30;5.88;;;19.50;81.60;;;;;;5006431;28;20081;-75
2022/06/16 02:07:39;;;;;;;6.68;5.85;;;19.40;81.10;;;;;;5007127;28;20025;-75
2022/06/16 02:10:13;;;;;;;8.85;5.70;;;19.30;81.40;;;;;;4991282;28;20040;-75
2022/06/16 02:12:57;;;;;;;8.73;6.10;;;19.30;82.20;;;;;;4991788;28;20278;-75
2022/06/16 02:15:38;;;;;;;8.23;5.85;;;19.30;81.80;;;;;;4983056;28;20029;-75
2022/06/16 02:18:08;;;;;;;7.10;5.75;;;19.30;82.40;;;;;;5035852;28;20021;-76
2022/06/16 02:20:43;;;;;;;8.75;6.47;;;19.20;82.30;;;;;;4991779;28;20053;-76
2022/06/16 02:23:09;;;;;;;7.47;5.45;;;19.20;83.10;;;;;;5006809;28;20220;-75
2022/06/16 02:25:34;;;;;;;7.63;6.13;;;19.20;83.40;;;;;;5022418;28;20030;-75
2022/06/16 02:28:00;;;;;;;10.20;6.37;;;19.10;84.10;;;;;;4990662;28;20044;-75
2022/06/16 02:30:28;;;;;;;7.80;6.07;;;19.10;84.20;;;;;;4990092;28;20029;-76
2022/06/16 02:33:23;;;;;;;8.20;5.78;;;19.00;83.70;;;;;;4990711;28;20029;-76
2022/06/16 02:35:59;;;;;;;7.10;5.50;;;19.00;84.00;;;;;;5008209;28;20025;-75
2022/06/16 02:39:02;;;;;;;8.63;5.82;;;18.90;84.70;;;;;;5006536;28;20040;-75
2022/06/16 02:41:52;;;;;;;8.68;5.72;;;18.90;84.70;;;;;;4978045;28;20028;-75
2022/06/16 02:44:25;;;;;;;8.65;5.80;;;18.90;84.30;;;;;;5005967;28;20026;-76
2022/06/16 02:47:47;;;;;;;7.00;5.70;;;18.90;84.60;;;;;;5006586;28;20049;-75
2022/06/16 02:50:43;;;;;;;8.70;6.18;;;18.80;84.10;;;;;;4994094;28;20336;-75
2022/06/16 02:54:20;;;;;;;8.50;6.13;;;18.80;84.70;;;;;;5023540;28;20358;-75
2022/06/16 02:57:08;;;;;;;7.68;5.65;;;18.70;84.40;;;;;;5019449;28;20037;-75
2022/06/16 02:59:41;;;;;;;;;;;18.70;84.50;;;;;;5021600;28;20025;-75
2022/06/16 03:02:17;;;;;;;8.95;5.90;;;18.60;84.70;;;;;;4989785;28;20204;-75
2022/06/16 03:04:56;;;;;;;8.13;6.38;;;18.60;85.50;;;;;;4985504;28;20053;-75
2022/06/16 03:07:23;;;;;;;8.15;5.90;;;18.50;84.80;;;;;;4971112;28;20046;-75
2022/06/16 03:09:49;;;;;;;7.78;5.90;;;18.50;84.80;;;;;;4991757;28;20093;-75
2022/06/16 03:12:15;;;;;;;6.83;6.17;;;18.40;84.40;;;;;;5005757;28;20038;-75
2022/06/16 03:14:42;;;;;;;8.20;5.82;;;18.40;85.40;;;;;;4973567;28;20026;-75
2022/06/16 03:17:08;;;;;;;9.00;6.10;;;18.40;85.60;;;;;;4989696;28;20068;-75
2022/06/16 03:19:33;;;;;;;8.57;5.83;;;18.40;84.40;;;;;;4985444;28;20026;-75
2022/06/16 03:21:59;;;;;;;7.03;6.03;;;18.30;85.20;;;;;;4986522;28;20103;-75
2022/06/16 03:24:25;;;;;;;8.87;6.33;;;18.30;85.50;;;;;;5019488;28;20339;-75
2022/06/16 03:26:51;;;;;;;8.63;5.57;;;18.30;85.80;;;;;;4989712;28;20071;-75
2022/06/16 03:29:17;;;;;;;7.95;5.97;;;18.30;84.70;;;;;;5005707;28;20017;-75
2022/06/16 03:31:43;;;;;;;8.03;6.20;;;18.20;86.60;;;;;;5005665;28;20259;-75
2022/06/16 03:34:09;;;;;;;7.27;5.63;;;18.20;86.40;;;;;;5022023;28;20025;-75
2022/06/16 03:36:35;;;;;;;10.33;5.73;;;18.20;86.60;;;;;;5005359;28;20029;-75
2022/06/16 03:39:02;;;;;;;6.72;5.47;;;18.20;85.80;;;;;;4972811;28;20232;-75
2022/06/16 03:41:28;;;;;;;8.82;6.30;;;18.20;86.20;;;;;;5001956;28;20053;-75
2022/06/16 03:43:54;;;;;;;11.17;5.60;;;18.20;86.90;;;;;;5003028;28;20041;-75
2022/06/16 03:46:20;;;;;;;6.63;5.93;;;18.10;88.00;;;;;;5006935;28;20029;-75
2022/06/16 03:48:46;;;;;;;7.93;6.03;;;18.10;87.80;;;;;;5022741;28;20025;-75
2022/06/16 03:51:12;;;;;;;8.93;6.47;;;18.10;88.10;;;;;;5022718;28;20327;-76
2022/06/16 03:53:38;;;;;;;12.80;6.57;;;18.10;89.50;;;;;;5021937;28;20022;-76
2022/06/16 03:56:04;;;;;;;10.50;6.90;;;18.10;89.60;;;;;;4988794;28;20036;-75
2022/06/16 03:58:30;;;;;;;8.82;6.65;;;18.20;90.20;;;;;;5022111;28;20037;-75
2022/06/16 04:00:55;;;;;;;7.70;6.30;;;18.20;90.40;;;;;;5022623;28;20025;-75
2022/06/16 04:06:05;;;;;;;10.10;6.80;;;18.20;90.60;;;;;;5007168;28;20029;-75
2022/06/16 04:08:31;;;;;;;8.87;6.60;;;18.20;90.80;;;;;;5005029;28;20025;-75
2022/06/16 04:10:57;;;;;;;9.47;6.13;;;18.20;90.60;;;;;;5021667;28;20025;-75
2022/06/16 04:13:23;;;;;;;9.73;6.67;;;18.20;90.90;;;;;;5004665;28;20038;-74
2022/06/16 04:15:50;;;;;;;11.67;6.83;;;18.20;91.20;;;;;;5021592;28;20363;-75
2022/06/16 04:18:19;;;;;;;9.85;6.70;;;18.20;91.10;;;;;;4987986;28;20022;-75
2022/06/16 04:20:46;;;;;;;8.82;6.82;;;18.10;90.90;;;;;;5025398;28;20040;-73
2022/06/16 04:23:12;;;;;;;;;;;18.10;91.00;;;;;;5033900;28;20018;-73
2022/06/16 04:25:38;;;;;;;8.38;5.70;;;18.10;91.10;;;;;;4992535;28;19913;-73
2022/06/16 04:28:05;;;;;;;10.40;7.40;;;18.10;91.10;;;;;;5021212;28;20029;-73
2022/06/16 04:30:32;;;;;;;9.85;6.43;;;18.20;91.10;;;;;;5012166;28;20018;-73
2022/06/16 04:32:58;;;;;;;8.60;6.53;;;18.20;91.30;;;;;;4996037;28;20275;-73
2022/06/16 04:35:25;;;;;;;10.73;7.40;;;18.20;90.90;;;;;;5005091;28;20025;-73
2022/06/16 04:37:51;;;;;;;;;;;18.20;91.30;;;;;;5022556;28;20028;-73
2022/06/16 04:40:17;;;;;;;11.43;6.70;;;18.20;91.40;;;;;;5022243;28;19905;-73
2022/06/16 04:42:43;;;;;;;9.20;7.50;;;18.20;91.20;;;;;;5004236;28;20030;-73
2022/06/16 04:45:10;;;;;;;11.00;7.23;;;18.20;91.20;;;;;;5004613;28;20022;-73
2022/06/16 04:47:37;;;;;;;10.13;6.95;;;18.30;91.40;;;;;;5004885;28;20021;-73
2022/06/16 04:50:04;;;;;;;12.52;8.20;;;18.30;91.30;;;;;;5021446;28;20022;-74
2022/06/16 04:52:30;;;;;;;9.18;7.20;;;18.40;91.60;;;;;;5004790;28;20311;-73
2022/06/16 04:54:56;;;;;;;7.83;6.40;;;18.40;91.30;;;;;;5004436;28;20034;-73
2022/06/16 04:57:22;;;;;;;10.30;7.57;;;18.50;91.10;;;;;;5021829;28;20033;-73
2022/06/16 04:59:48;;;;;;;10.37;7.13;;;18.50;90.80;;;;;;5021935;28;20033;-73
2022/06/16 05:02:14;;;;;;;9.03;7.60;;;18.50;91.00;;;;;;5004500;28;20029;-73
2022/06/16 05:04:41;;;;;;;11.15;7.47;;;18.60;91.20;;;;;;5021804;28;20045;-74
2022/06/16 05:07:07;;;;;;;9.32;7.50;;;18.60;91.30;;;;;;5022105;28;20080;-73
2022/06/16 05:09:32;;;;;;;9.00;7.47;;;18.60;91.30;;;;;;5021511;28;20496;-73
2022/06/16 05:11:58;;;;;;;9.57;8.03;;;18.60;91.30;;;;;;5021776;28;20026;-73
2022/06/16 05:14:24;;;;;;;9.57;6.97;;;18.70;91.20;;;;;;5021310;28;20378;-74
2022/06/16 05:16:50;;;;;;;11.73;7.90;;;18.70;91.00;;;;;;5004645;28;20362;-73
2022/06/16 05:19:16;;;;;;;9.85;7.90;;;18.80;91.20;;;;;;5004341;28;20190;-73
2022/06/16 05:21:41;;;;;;;14.83;8.53;;;18.80;91.10;;;;;;4972528;28;20220;-75
2022/06/16 05:24:08;;;;;;;10.00;7.77;;;18.80;90.90;;;;;;5021034;28;20028;-74
2022/06/16 05:26:34;;;;;;;11.40;7.82;;;18.90;90.70;;;;;;5004927;28;20029;-74
2022/06/16 05:28:59;;;;;;;12.10;8.57;;;18.90;90.70;;;;;;5021489;28;20034;-74
2022/06/16 05:31:25;;;;;;;11.87;7.77;;;18.90;90.90;;;;;;5021997;28;20081;-74
2022/06/16 05:33:51;;;;;;;10.63;8.50;;;18.90;90.70;;;;;;5021434;28;20021;-74
2022/06/16 05:36:18;;;;;;;10.00;7.63;;;18.90;90.80;;;;;;5014209;28;20026;-74
2022/06/16 05:38:44;;;;;;;11.63;8.40;;;18.90;90.90;;;;;;5021540;28;20033;-74
2022/06/16 05:41:14;;;;;;;9.48;7.10;;;18.90;90.10;;;;;;4988839;28;20033;-74
2022/06/16 05:43:40;;;;;;;9.38;7.38;;;18.80;89.10;;;;;;4988464;28;20038;-74
2022/06/16 05:46:07;;;;;;;;;;;18.80;90.20;;;;;;5015340;28;20024;-73
2022/06/16 05:48:33;;;;;;;10.93;7.03;;;18.80;89.50;;;;;;5025336;28;20255;-75
2022/06/16 05:51:08;;;;;;;10.95;6.97;;;18.80;89.00;;;;;;4959608;28;20030;-75
2022/06/16 05:53:34;;;;;;;10.68;7.97;;;18.90;90.70;;;;;;4991234;28;20036;-75
2022/06/16 05:56:00;;;;;;;14.27;8.10;;;18.90;90.90;;;;;;5024997;28;20057;-75
2022/06/16 05:58:26;;;;;;;14.50;8.87;;;18.90;91.10;;;;;;5025117;28;20049;-75
2022/06/16 06:00:51;;;;;;;23.90;9.50;;;19.00;91.10;;;;;;5006653;28;20022;-75
2022/06/16 06:03:17;;;;;;;15.90;8.90;;;19.00;92.10;;;;;;5023884;28;20021;-76
2022/06/16 06:05:43;;;;;;;13.43;8.50;;;19.10;92.50;;;;;;5020517;28;20221;-77
2022/06/16 06:16:35;;;;;;;8.50;6.65;;;19.30;92.00;;;;;;5034245;28;20136;-75
2022/06/16 06:22:01;;;;;;;6.30;5.67;;;19.30;89.30;;;;;;5026779;28;20032;-76
2022/06/16 06:24:38;;;;;;;8.20;5.55;;;19.30;87.10;;;;;;5030761;28;20479;-74
2022/06/16 06:27:10;;;;;;;9.05;5.82;;;19.30;86.50;;;;;;4996363;28;20018;-75
2022/06/16 06:29:36;;;;;;;9.32;7.05;;;19.40;86.00;;;;;;5026165;28;20048;-75
2022/06/16 06:32:02;;;;;;;7.47;6.10;;;19.40;85.70;;;;;;5013864;28;20029;-75
2022/06/16 06:34:28;;;;;;;6.53;5.70;;;19.50;85.10;;;;;;5024127;28;20063;-75
2022/06/16 06:36:55;;;;;;;7.80;4.93;;;19.60;86.60;;;;;;5017459;28;20022;-75
2022/06/16 06:39:21;;;;;;;8.18;5.72;;;19.60;88.70;;;;;;5018555;28;20026;-75
2022/06/16 06:41:47;;;;;;;9.75;6.75;;;19.70;87.10;;;;;;5029416;28;20034;-76
2022/06/16 06:44:12;;;;;;;8.60;7.10;;;19.70;82.80;;;;;;5031468;28;20347;-75
2022/06/16 06:46:38;;;;;;;8.13;6.50;;;19.70;82.60;;;;;;5025134;28;20089;-76
2022/06/16 06:49:04;;;;;;;9.07;6.33;;;19.80;84.60;;;;;;5025171;28;20048;-76
2022/06/16 06:51:31;;;;;;;9.63;6.53;;;19.90;83.90;;;;;;5023989;28;20344;-76
2022/06/16 06:53:58;;;;;;;8.48;6.32;;;19.90;83.40;;;;;;5024079;28;20209;-76
2022/06/16 06:56:24;;;;;;;9.05;6.10;;;19.90;84.80;;;;;;4990953;28;20029;-76
2022/06/16 06:58:52;;;;;;;12.98;7.68;;;20.10;81.90;;;;;;4986588;28;20225;-75
2022/06/16 07:01:18;;;;;;;13.57;6.65;;;20.20;82.70;;;;;;4971565;28;20030;-76
2022/06/16 07:03:45;;;;;;;9.57;7.53;;;20.20;83.50;;;;;;5005299;28;20049;-76
2022/06/16 07:06:11;;;;;;;9.45;6.22;;;20.30;84.60;;;;;;4987804;28;20088;-76
2022/06/16 07:08:37;;;;;;;10.03;6.07;;;20.30;84.70;;;;;;5006547;28;20235;-76
2022/06/16 07:11:03;;;;;;;6.63;5.93;;;20.40;82.20;;;;;;5024589;28;20022;-75
2022/06/16 07:13:29;;;;;;;7.30;6.53;;;20.50;83.60;;;;;;5005998;28;20018;-76
2022/06/16 07:15:54;;;;;;;8.67;6.33;;;20.60;82.50;;;;;;5005715;28;20348;-76
2022/06/16 07:18:20;;;;;;;7.67;5.67;;;20.70;83.70;;;;;;5023289;28;20048;-76
2022/06/16 07:20:47;;;;;;;7.57;6.17;;;20.70;84.20;;;;;;5005930;28;20018;-76
2022/06/16 07:23:15;;;;;;;;;;;20.80;83.50;;;;;;5005855;28;20232;-76
2022/06/16 07:25:41;;;;;;;;;;;20.90;82.40;;;;;;5003476;28;19909;-76
2022/06/16 07:28:06;;;;;;;10.10;7.32;;;21.00;81.60;;;;;;5023010;28;19932;-76
2022/06/16 07:30:32;;;;;;;10.37;7.10;;;21.10;82.70;;;;;;5022033;28;20228;-76
2022/06/16 07:32:59;;;;;;;8.33;6.70;;;21.10;81.10;;;;;;5023105;28;20257;-75
2022/06/16 07:35:25;;;;;;;11.35;6.90;;;21.20;82.00;;;;;;5014326;28;20029;-76
2022/06/16 07:37:51;;;;;;;7.17;6.20;;;21.30;82.50;;;;;;5011082;28;20089;-75
2022/06/16 07:40:17;;;;;;;8.50;6.97;;;21.30;82.60;;;;;;5003650;28;20037;-75
2022/06/16 07:42:44;;;;;;;7.70;6.85;;;21.40;82.50;;;;;;4986106;28;20027;-74
2022/06/16 07:45:11;;;;;;;8.50;6.55;;;21.40;82.00;;;;;;4986321;28;20022;-74
2022/06/16 07:47:37;;;;;;;7.65;6.72;;;21.50;80.10;;;;;;4986129;28;20026;-74
2022/06/16 07:50:08;;;;;;;15.40;8.77;;;21.50;78.10;;;;;;5003447;28;20029;-74
2022/06/16 07:52:35;;;;;;;9.52;7.03;;;21.60;78.90;;;;;;4986190;28;20022;-74
2022/06/16 07:55:01;;;;;;;11.32;6.93;;;21.60;78.10;;;;;;5004242;28;20275;-73
2022/06/16 07:57:27;;;;;;;10.47;6.53;;;21.70;78.10;;;;;;5004870;28;20105;-74
2022/06/16 07:59:57;;;;;;;8.35;6.72;;;21.60;76.90;;;;;;5005099;28;20265;-75
2022/06/16 08:02:23;;;;;;;12.45;6.93;;;21.70;77.20;;;;;;4988975;28;20272;-75
2022/06/16 08:04:49;;;;;;;9.13;6.72;;;21.70;77.00;;;;;;5021237;28;20010;-75
2022/06/16 08:07:15;;;;;;;7.70;6.90;;;21.70;77.90;;;;;;5004650;28;20038;-75
2022/06/16 08:09:41;;;;;;;10.07;7.33;;;21.80;75.60;;;;;;5005197;28;20428;-74
2022/06/16 08:12:08;;;;;;;10.70;6.85;;;21.80;76.50;;;;;;5004594;28;20030;-74
2022/06/16 08:14:42;;;;;;;9.82;7.07;;;21.90;77.50;;;;;;5005023;28;20029;-74
2022/06/16 08:17:18;;;;;;;8.73;6.63;;;22.00;77.90;;;;;;5021518;28;20037;-74
2022/06/16 08:19:43;;;;;;;11.45;6.93;;;22.00;76.90;;;;;;4989908;28;20272;-74
2022/06/16 08:22:12;;;;;;;8.40;7.27;;;22.10;74.70;;;;;;5022481;28;20038;-75
2022/06/16 08:24:38;;;;;;;6.93;6.22;;;22.20;75.00;;;;;;4988748;28;20026;-74
2022/06/16 08:27:04;;;;;;;7.30;5.88;;;22.30;75.30;;;;;;5004942;28;20022;-74
2022/06/16 08:29:29;;;;;;;9.40;6.60;;;22.40;76.90;;;;;;4972746;28;20113;-74
2022/06/16 08:31:56;;;;;;;7.13;6.07;;;22.50;73.40;;;;;;5004691;28;20257;-75
2022/06/16 08:34:22;;;;;;;7.90;5.57;;;22.60;72.90;;;;;;5004565;28;20038;-74
2022/06/16 08:36:48;;;;;;;6.27;5.17;;;22.80;67.50;;;;;;5022287;28;20040;-74
2022/06/16 08:39:14;;;;;;;7.87;5.47;;;23.00;66.90;;;;;;5005276;28;20041;-75
2022/06/16 08:42:08;;;;;;;6.25;5.22;;;23.10;68.20;;;;;;5022209;28;20367;-76
2022/06/16 08:44:51;;;;;;;7.15;5.53;;;23.10;68.10;;;;;;4989842;28;20038;-74
2022/06/16 08:47:20;;;;;;;7.68;5.90;;;23.20;64.80;;;;;;5006231;28;20049;-74
2022/06/16 08:50:02;;;;;;;6.00;5.43;;;23.40;65.30;;;;;;4988559;28;20022;-74
2022/06/16 08:53:01;;;;;;;6.78;5.45;;;23.50;64.50;;;;;;5022147;28;20029;-75
2022/06/16 08:56:01;;;;;;;7.70;5.47;;;23.60;64.60;;;;;;5004042;28;20044;-75
2022/06/16 08:58:47;;;;;;;7.40;5.10;;;23.70;66.10;;;;;;4983544;28;20042;-75
2022/06/16 09:01:28;;;;;;;8.60;5.57;;;23.80;64.40;;;;;;4985288;28;20030;-76
2022/06/16 09:04:23;;;;;;;6.03;5.18;;;23.90;62.60;;;;;;4970721;28;20070;-75
2022/06/16 09:07:05;;;;;;;6.90;5.53;;;23.90;62.90;;;;;;4998523;28;20224;-75
2022/06/16 09:12:47;;;;;;;5.82;5.15;;;24.10;63.50;;;;;;5006878;28;20072;-75
2022/06/16 09:15:20;;;;;;;7.05;5.43;;;24.20;61.80;;;;;;5004175;28;20026;-75
2022/06/16 09:18:07;;;;;;;7.07;5.38;;;24.40;63.00;;;;;;5008757;28;20021;-75
2022/06/16 09:21:38;;;;;;;7.87;5.30;;;24.50;63.30;;;;;;5025601;28;20022;-75
2022/06/16 09:24:40;;;;;;;5.82;5.00;;;24.60;61.00;;;;;;4951566;29;20047;-76
2022/06/16 09:27:18;;;;;;;5.88;4.60;;;24.50;61.70;;;;;;4948655;29;20075;-74
2022/06/16 09:29:51;;;;;;;9.45;6.05;;;24.60;64.40;;;;;;5006928;28;20029;-75
2022/06/16 09:32:32;;;;;;;6.15;4.93;;;24.60;64.20;;;;;;4991672;28;20052;-75
2022/06/16 09:35:23;;;;;;;6.22;5.13;;;24.60;62.40;;;;;;5007705;28;20026;-74
2022/06/16 09:38:13;;;;;;;9.52;5.43;;;24.70;61.70;;;;;;5009992;28;20030;-74
2022/06/16 09:42:32;;;;;;;5.95;4.90;;;24.80;62.20;;;;;;5024665;28;20022;-75
2022/06/16 09:44:02;;;;;;;6.45;3.95;;;24.90;62.50;;;;;;5000963;28;20034;-76
2022/06/16 09:46:35;;;;;;;6.05;4.30;;;25.00;60.70;;;;;;4991862;28;20026;-74
2022/06/16 09:49:21;;;;;;;5.28;4.72;;;25.00;60.30;;;;;;4992239;28;20228;-74
2022/06/16 09:52:02;;;;;;;6.78;4.20;;;25.10;59.10;;;;;;4992839;28;20032;-75
2022/06/16 09:54:34;;;;;;;7.43;4.55;;;25.10;62.20;;;;;;4991442;28;20022;-75
2022/06/16 09:57:12;;;;;;;7.43;4.30;;;25.10;58.30;;;;;;4975328;28;20037;-74
2022/06/16 09:59:50;;;;;;;10.48;5.68;;;25.20;60.70;;;;;;5008770;28;20293;-75
2022/06/16 10:02:29;;;;;;;10.05;6.32;;;25.20;58.30;;;;;;4992636;28;20382;-75
2022/06/16 10:04:55;;;;;;;14.63;7.72;;;25.30;60.60;;;;;;5024545;28;20363;-75
2022/06/16 10:07:41;;;;;;;14.10;6.70;;;25.30;60.90;;;;;;5007377;28;20088;-75
2022/06/16 10:10:22;;;;;;;9.07;4.90;;;25.30;62.80;;;;;;4992311;28;20022;-76
2022/06/16 10:13:13;;;;;;;4.70;4.25;;;25.40;62.60;;;;;;5006946;28;20116;-76
2022/06/16 10:16:13;;;;;;;7.32;4.80;;;25.50;57.20;;;;;;4991882;28;20363;-76
2022/06/16 10:18:40;;;;;;;5.63;4.07;;;25.60;57.80;;;;;;4938787;28;20049;-76
2022/06/16 10:21:07;;;;;;;5.60;3.90;;;25.70;58.10;;;;;;5025245;28;20225;-74
2022/06/16 10:23:51;;;;;;;5.32;4.10;;;25.70;57.70;;;;;;5026745;28;20093;-76
2022/06/16 10:26:17;;;;;;;4.88;4.35;;;25.80;55.50;;;;;;4998035;28;20046;-77
2022/06/16 10:28:50;;;;;;;5.80;4.20;;;25.80;56.90;;;;;;5017612;28;20344;-79
2022/06/16 10:31:41;;;;;;;7.53;4.20;;;25.90;56.70;;;;;;5020958;28;20029;-76
2022/06/16 10:34:22;;;;;;;6.57;4.15;;;25.90;56.50;;;;;;4995048;28;20076;-76
2022/06/16 10:36:55;;;;;;;4.85;3.78;;;25.90;58.10;;;;;;5006806;28;20236;-77
2022/06/16 10:39:24;;;;;;;5.20;4.05;;;26.00;56.10;;;;;;4991293;28;20236;-78
2022/06/16 10:42:20;;;;;;;7.03;4.20;;;26.10;55.60;;;;;;4974678;28;20033;-77
2022/06/16 10:45:01;;;;;;;7.40;4.50;;;26.00;57.60;;;;;;5003666;28;20104;-77
2022/06/16 10:47:46;;;;;;;7.40;4.00;;;26.10;58.00;;;;;;5008397;28;20052;-79
2022/06/16 10:50:21;;;;;;;7.35;4.20;;;26.20;56.90;;;;;;5007692;28;20214;-77
2022/06/16 10:52:53;;;;;;;5.78;3.83;;;26.30;57.40;;;;;;4990530;28;20072;-76
2022/06/16 10:55:23;;;;;;;7.03;3.85;;;26.40;57.30;;;;;;4991062;28;20479;-77
2022/06/16 10:58:07;;;;;;;5.53;3.92;;;26.60;57.60;;;;;;4989543;28;20022;-77
2022/06/16 11:00:35;;;;;;;4.18;3.72;;;26.70;57.70;;;;;;4990901;28;20029;-77
2022/06/16 11:03:04;;;;;;;7.65;3.40;;;26.70;55.70;;;;;;4990032;28;20040;-77
2022/06/16 11:05:34;;;;;;;6.43;4.35;;;26.70;55.20;;;;;;5005428;28;20026;-77
2022/06/16 11:08:11;;;;;;;3.55;3.25;;;26.80;54.40;;;;;;4990464;28;20033;-77
2022/06/16 11:10:40;;;;;;;5.22;3.80;;;26.80;56.20;;;;;;5006404;28;20198;-77
2022/06/16 11:13:07;;;;;;;5.30;3.55;;;26.70;55.80;;;;;;5004949;28;20067;-77
2022/06/16 11:15:40;;;;;;;7.97;3.90;;;26.70;54.70;;;;;;4989946;28;20033;-77
2022/06/16 11:18:11;;;;;;;6.72;3.70;;;26.70;55.90;;;;;;4985963;28;20097;-76
2022/06/16 11:20:45;;;;;;;6.63;3.70;;;26.90;55.30;;;;;;4970965;28;20033;-76
2022/06/16 11:23:17;;;;;;;4.88;3.47;;;27.00;56.20;;;;;;4981210;28;20026;-76
2022/06/16 11:25:43;;;;;;;6.18;3.65;;;27.10;56.20;;;;;;4987771;28;20022;-75
2022/06/16 11:28:12;;;;;;;6.38;3.42;;;27.20;52.00;;;;;;4991574;28;20378;-76
2022/06/16 11:30:52;;;;;;;9.65;5.28;;;27.30;51.50;;;;;;5025996;28;20106;-76
2022/06/16 11:36:40;;;;;;;5.63;3.88;;;27.30;50.70;;;;;;5009257;28;20105;-76
2022/06/16 11:39:16;;;;;;;4.97;4.03;;;27.30;52.60;;;;;;5010054;28;20046;-77
2022/06/16 11:41:46;;;;;;;7.57;3.70;;;27.30;54.00;;;;;;5007231;28;20061;-76
2022/06/16 11:44:24;;;;;;;5.47;4.30;;;27.30;53.70;;;;;;4972377;28;20044;-77
2022/06/16 11:46:59;;;;;;;5.00;3.95;;;27.20;53.70;;;;;;5013459;28;20104;-76
2022/06/16 11:49:41;;;;;;;6.18;4.40;;;27.20;53.00;;;;;;5009404;28;20348;-77
2022/06/16 11:52:48;;;;;;;12.65;4.70;;;27.10;52.60;;;;;;5027315;28;20021;-76
2022/06/16 11:55:25;;;;;;;4.93;3.90;;;27.10;54.10;;;;;;5017215;28;20041;-77
2022/06/16 11:58:03;;;;;;;9.38;4.22;;;27.30;53.60;;;;;;5009473;28;20024;-74
2022/06/16 12:00:53;;;;;;;7.53;4.18;;;27.40;52.80;;;;;;5026272;28;20029;-75
2022/06/16 12:03:41;;;;;;;4.95;4.07;;;27.70;52.50;;;;;;5003013;28;20025;-74
2022/06/16 12:06:42;;;;;;;6.05;4.70;;;27.80;54.90;;;;;;5026940;28;20087;-75
2022/06/16 12:09:41;;;;;;;9.38;6.00;;;27.90;52.40;;;;;;5010904;28;20032;-75
2022/06/16 12:12:20;;;;;;;8.40;5.07;;;28.00;55.30;;;;;;5042242;28;20143;-68
2022/06/16 12:15:28;;;;;;;5.18;3.80;;;27.90;53.20;;;;;;5023967;28;20103;-68
2022/06/16 12:18:27;;;;;;;6.35;4.32;;;27.80;52.70;;;;;;5042134;28;20055;-68
2022/06/16 12:21:01;;;;;;;7.47;4.15;;;27.90;54.10;;;;;;5009820;28;20144;-68
2022/06/16 12:23:42;;;;;;;4.35;3.75;;;27.80;50.80;;;;;;5028441;28;20206;-68
2022/06/16 12:26:28;;;;;;;5.70;3.97;;;27.80;52.10;;;;;;5021969;28;20045;-68
2022/06/16 12:29:13;;;;;;;5.32;3.45;;;27.90;50.40;;;;;;4979830;28;20048;-67
2022/06/16 12:31:55;;;;;;;4.70;3.75;;;28.10;49.80;;;;;;4986679;28;20022;-67
2022/06/16 12:34:24;;;;;;;8.02;4.72;;;28.20;51.90;;;;;;5011152;28;20049;-67
2022/06/16 12:36:54;;;;;;;6.43;4.20;;;28.30;51.90;;;;;;5022254;28;20030;-67
2022/06/16 12:39:32;;;;;;;6.95;4.35;;;28.40;52.30;;;;;;4988689;28;20033;-67
2022/06/16 12:42:04;;;;;;;4.38;3.00;;;28.60;47.60;;;;;;4989183;28;20026;-68
2022/06/16 12:44:35;;;;;;;7.40;3.90;;;28.80;49.10;;;;;;5004220;28;20025;-67
2022/06/16 12:47:05;;;;;;;5.70;3.20;;;29.00;49.60;;;;;;5022380;28;20022;-67
2022/06/16 12:49:41;;;;;;;4.78;3.20;;;29.10;46.00;;;;;;5004799;28;20224;-67
2022/06/16 12:52:22;;;;;;;9.75;3.15;;;29.10;46.10;;;;;;5008290;28;20024;-67
2022/06/16 12:54:58;;;;;;;4.78;3.22;;;29.20;46.70;;;;;;5009676;28;20026;-68
2022/06/16 12:57:29;;;;;;;6.03;3.53;;;29.30;46.80;;;;;;4993536;28;20028;-67
2022/06/16 13:00:10;;;;;;;6.65;3.65;;;29.30;46.70;;;;;;4988504;28;20048;-67
2022/06/16 13:02:39;;;;;;;3.40;2.92;;;29.20;46.10;;;;;;5018612;28;20014;-67
2022/06/16 13:05:09;;;;;;;8.30;3.80;;;29.30;46.70;;;;;;5013545;28;20228;-68
2022/06/16 13:07:35;;;;;;;4.45;3.25;;;29.30;46.20;;;;;;5011684;28;20052;-67
2022/06/16 13:10:04;;;;;;;6.28;3.22;;;29.30;47.20;;;;;;5015401;28;20028;-67
2022/06/16 13:12:33;;;;;;;4.82;3.00;;;29.50;45.90;;;;;;5017726;28;20284;-67
2022/06/16 13:15:10;;;;;;;5.43;3.45;;;29.60;47.00;;;;;;5019802;28;20025;-67
2022/06/16 13:17:45;;;;;;;5.13;3.92;;;29.80;45.80;;;;;;5037385;28;20312;-68
2022/06/16 13:20:13;;;;;;;7.13;4.50;;;30.10;45.40;;;;;;5010106;28;20033;-67
2022/06/16 13:22:54;;;;;;;3.92;2.78;;;30.30;45.60;;;;;;5011686;28;20021;-78
2022/06/16 13:25:42;;;;;;;6.30;3.22;;;30.30;44.60;;;;;;5012352;28;20025;-77
2022/06/16 13:28:26;;;;;;;5.95;2.83;;;30.40;46.30;;;;;;5026370;28;20014;-74
2022/06/16 13:31:08;;;;;;;3.88;2.78;;;30.50;46.60;;;;;;4997567;28;20073;-82
2022/06/16 13:33:45;;;;;;;5.40;3.20;;;30.60;44.80;;;;;;5019041;28;20056;-71
2022/06/16 13:36:27;;;;;;;;;;;30.80;46.20;;;;;;5037702;28;20017;-70
2022/06/16 13:38:53;;;;;;;6.03;3.10;;;31.10;46.70;;;;;;5030018;28;20219;-71
2022/06/16 13:41:38;;;;;;;3.65;3.10;;;31.60;45.80;;;;;;5032945;28;20038;-70
2022/06/16 13:44:16;;;;;;;3.75;2.60;;;32.10;50.30;;;;;;5029801;28;20025;-70
2022/06/16 13:46:58;;;;;;;4.60;2.85;;;32.30;45.00;;;;;;5024078;28;20025;-70
2022/06/16 13:49:34;;;;;;;6.15;3.13;;;32.00;43.10;;;;;;5011600;28;20060;-70
2022/06/16 13:52:16;;;;;;;3.70;2.67;;;32.00;43.10;;;;;;5025498;28;20025;-70